createdAt,value
2024-05-09T00:00:35.832Z,10.59
2024-05-09T00:03:07.896Z,10.58
2024-05-09T00:05:35.307Z,10.51
2024-05-09T00:08:02.419Z,10.54
2024-05-09T00:10:35.652Z,10.50
2024-05-09T00:13:05.093Z,10.51
2024-05-09T00:15:33.208Z,10.46
2024-05-09T00:18:00.070Z,10.43
2024-05-09T00:20:35.105Z,10.40
2024-05-09T00:23:07.055Z,10.44
2024-05-09T00:25:34.118Z,10.43
2024-05-09T00:28:00.825Z,10.37
2024-05-09T00:30:33.680Z,10.39
2024-05-09T00:33:03.654Z,10.41
2024-05-09T00:35:30.916Z,10.44
2024-05-09T00:37:57.770Z,10.45
2024-05-09T00:40:35.094Z,10.49
2024-05-09T00:43:06.252Z,10.40
2024-05-09T00:45:34.017Z,10.38
2024-05-09T00:48:03.536Z,10.39
2024-05-09T00:50:36.336Z,10.35
2024-05-09T00:53:06.035Z,10.33
2024-05-09T00:55:34.830Z,10.30
2024-05-09T00:58:02.528Z,10.30
2024-05-09T01:00:37.408Z,10.28
2024-05-09T01:03:06.427Z,10.27
2024-05-09T01:05:34.635Z,10.31
2024-05-09T01:08:02.155Z,10.33
2024-05-09T01:10:34.304Z,10.36
2024-05-09T01:13:06.299Z,10.36
2024-05-09T01:15:34.324Z,10.32
2024-05-09T01:18:03.879Z,10.25
2024-05-09T01:20:39.867Z,10.33
2024-05-09T01:23:10.206Z,10.31
2024-05-09T01:25:37.363Z,10.26
2024-05-09T01:28:04.221Z,10.18
2024-05-09T01:30:35.264Z,10.22
2024-05-09T01:33:05.667Z,10.21
2024-05-09T01:35:33.595Z,10.24
2024-05-09T01:38:00.225Z,10.27
2024-05-09T01:40:36.307Z,10.31
2024-05-09T01:43:06.588Z,10.34
2024-05-09T01:45:33.310Z,10.35
2024-05-09T01:48:00.250Z,10.30
2024-05-09T01:52:56.735Z,10.23
2024-05-09T01:55:23.591Z,10.28
2024-05-09T01:57:51.397Z,10.29
2024-05-09T02:00:26.309Z,10.32
2024-05-09T02:03:01.584Z,10.30
2024-05-09T02:05:28.425Z,10.27
2024-05-09T02:07:55.098Z,10.24
2024-05-09T02:10:26.503Z,10.25
2024-05-09T02:12:58.782Z,10.18
2024-05-09T02:15:25.401Z,10.24
2024-05-09T02:17:52.106Z,10.23
2024-05-09T02:20:27.454Z,10.18
2024-05-09T02:23:01.573Z,10.18
2024-05-09T02:25:28.176Z,10.24
2024-05-09T02:27:54.747Z,10.21
2024-05-09T02:30:29.979Z,10.21
2024-05-09T02:33:05.018Z,10.26
2024-05-09T02:35:31.831Z,10.27
2024-05-09T02:37:58.526Z,10.29
2024-05-09T02:40:33.324Z,10.28
2024-05-09T02:43:03.833Z,10.28
2024-05-09T02:45:30.372Z,10.30
2024-05-09T02:47:57.300Z,10.27
2024-05-09T02:50:33.071Z,10.24
2024-05-09T02:53:04.460Z,10.23
2024-05-09T02:55:31.234Z,10.24
2024-05-09T02:57:57.899Z,10.27
2024-05-09T03:00:34.165Z,10.28
2024-05-09T03:03:06.136Z,10.25
2024-05-09T03:05:33.339Z,10.23
2024-05-09T03:08:00.061Z,10.21
2024-05-09T03:10:29.100Z,10.13
2024-05-09T03:13:05.963Z,10.16
2024-05-09T03:15:33.010Z,10.20
2024-05-09T03:18:00.931Z,10.09
2024-05-09T03:20:33.383Z,10.09
2024-05-09T03:23:02.189Z,10.09
2024-05-09T03:25:28.904Z,10.07
2024-05-09T03:27:55.551Z,10.04
2024-05-09T03:30:31.107Z,10.04
2024-05-09T03:33:10.225Z,9.97
2024-05-09T03:35:37.152Z,9.96
2024-05-09T03:38:04.004Z,10.01
2024-05-09T03:40:31.251Z,10.04
2024-05-09T03:42:58.734Z,10.06
2024-05-09T03:45:25.484Z,10.01
2024-05-09T03:47:52.443Z,10.04
2024-05-09T03:50:26.450Z,10.02
2024-05-09T03:53:01.172Z,9.95
2024-05-09T03:55:28.629Z,10.03
2024-05-09T03:57:55.394Z,10.09
2024-05-09T04:00:30.819Z,9.87
2024-05-09T04:03:04.446Z,9.92
2024-05-09T04:05:32.769Z,9.98
2024-05-09T04:07:59.649Z,10.01
2024-05-09T04:10:33.471Z,10.03
2024-05-09T04:13:01.955Z,9.97
2024-05-09T04:15:28.734Z,9.99
2024-05-09T04:17:55.488Z,10.01
2024-05-09T04:20:33.051Z,9.95
2024-05-09T04:23:12.109Z,9.97
2024-05-09T04:25:44.558Z,9.94
2024-05-09T04:28:11.798Z,9.99
2024-05-09T04:30:40.895Z,9.95
2024-05-09T04:33:11.904Z,9.96
2024-05-09T04:35:42.173Z,9.96
2024-05-09T04:38:09.327Z,9.96
2024-05-09T04:40:37.311Z,9.97
2024-05-09T04:43:14.316Z,9.95
2024-05-09T04:45:41.259Z,9.96
2024-05-09T04:48:08.622Z,9.93
2024-05-09T04:50:38.441Z,9.94
2024-05-09T04:53:09.031Z,9.97
2024-05-09T04:55:37.163Z,10.04
2024-05-09T04:58:03.967Z,10.03
2024-05-09T05:00:36.333Z,10.03
2024-05-09T05:03:13.245Z,10.04
2024-05-09T05:05:42.276Z,10.08
2024-05-09T05:08:12.878Z,10.09
2024-05-09T05:10:40.177Z,10.09
2024-05-09T05:13:17.136Z,10.14
2024-05-09T05:15:48.683Z,10.18
2024-05-09T05:18:16.253Z,10.23
2024-05-09T05:20:43.894Z,10.13
2024-05-09T05:23:13.527Z,10.21
2024-05-09T05:25:41.203Z,10.30
2024-05-09T05:28:08.358Z,10.25
2024-05-09T05:30:37.860Z,10.21
2024-05-09T05:33:06.142Z,10.30
2024-05-09T05:35:33.423Z,10.33
2024-05-09T05:38:00.206Z,10.25
2024-05-09T05:40:33.377Z,10.27
2024-05-09T05:43:11.200Z,10.34
2024-05-09T05:45:38.618Z,10.43
2024-05-09T05:48:07.256Z,10.45
2024-05-09T05:50:37.214Z,10.45
2024-05-09T05:53:06.362Z,10.46
2024-05-09T05:55:33.206Z,10.49
2024-05-09T05:58:00.656Z,10.47
2024-05-09T06:00:34.420Z,10.46
2024-05-09T06:03:05.263Z,10.48
2024-05-09T06:05:32.506Z,10.49
2024-05-09T06:07:59.435Z,10.39
2024-05-09T06:10:34.428Z,10.42
2024-05-09T06:13:05.038Z,10.59
2024-05-09T06:15:31.666Z,10.63
2024-05-09T06:17:58.598Z,10.76
2024-05-09T06:20:34.595Z,10.80
2024-05-09T06:23:04.390Z,10.51
2024-05-09T06:25:31.396Z,10.71
2024-05-09T06:27:59.000Z,10.89
2024-05-09T06:30:30.972Z,11.00
2024-05-09T06:33:06.068Z,11.04
2024-05-09T06:35:33.520Z,11.10
2024-05-09T06:38:00.444Z,11.26
2024-05-09T06:40:36.127Z,11.30
2024-05-09T06:43:05.899Z,11.35
2024-05-09T06:45:32.591Z,11.23
2024-05-09T06:47:59.483Z,11.40
2024-05-09T06:50:28.640Z,11.67
2024-05-09T06:53:02.434Z,11.75
2024-05-09T06:55:29.199Z,11.62
2024-05-09T06:57:55.869Z,11.75
2024-05-09T07:00:27.660Z,11.83
2024-05-09T07:03:05.718Z,11.93
2024-05-09T07:05:33.560Z,12.02
2024-05-09T07:08:00.267Z,11.85
2024-05-09T07:10:32.978Z,11.96
2024-05-09T07:13:02.027Z,12.19
2024-05-09T07:15:28.628Z,12.18
2024-05-09T07:17:55.497Z,12.34
2024-05-09T07:20:32.315Z,12.65
2024-05-09T07:23:03.043Z,12.75
2024-05-09T07:25:30.020Z,12.74
2024-05-09T07:27:56.823Z,12.65
2024-05-09T07:30:30.855Z,12.69
2024-05-09T07:33:00.895Z,12.65
2024-05-09T07:35:27.978Z,12.71
2024-05-09T07:37:54.742Z,12.67
2024-05-09T07:40:31.848Z,12.56
2024-05-09T07:43:07.198Z,12.69
2024-05-09T07:52:23.674Z,12.95
2024-05-09T07:53:39.197Z,12.69
2024-05-09T07:56:09.952Z,12.77
2024-05-09T07:58:37.220Z,12.80
2024-05-09T08:01:04.513Z,12.72
2024-05-09T08:03:33.914Z,12.78
2024-05-09T08:06:00.984Z,12.97
2024-05-09T08:08:27.587Z,13.13
2024-05-09T08:10:54.257Z,13.25
2024-05-09T08:13:21.022Z,13.35
2024-05-09T08:15:48.618Z,13.25
2024-05-09T08:18:15.406Z,13.33
2024-05-09T08:20:42.482Z,13.51
2024-05-09T08:23:09.228Z,13.39
2024-05-09T08:25:36.424Z,13.44
2024-05-09T08:28:04.759Z,13.67
2024-05-09T08:30:36.732Z,13.73
2024-05-09T08:33:06.499Z,13.26
2024-05-09T08:35:34.178Z,13.44
2024-05-09T08:38:06.202Z,13.77
2024-05-09T08:40:38.395Z,14.05
2024-05-09T08:43:11.035Z,13.92
2024-05-09T08:45:42.664Z,14.02
2024-05-09T08:48:12.536Z,14.27
2024-05-09T08:50:41.306Z,14.35
2024-05-09T08:53:08.768Z,14.43
2024-05-09T08:55:40.100Z,14.45
2024-05-09T08:58:12.521Z,14.57
2024-05-09T09:00:40.302Z,14.63
2024-05-09T09:03:09.405Z,14.61
2024-05-09T09:05:38.819Z,14.80
2024-05-09T09:08:09.032Z,14.23
2024-05-09T09:10:39.014Z,14.49
2024-05-09T09:13:09.413Z,14.95
2024-05-09T09:15:46.983Z,15.26
2024-05-09T09:18:14.770Z,15.30
2024-05-09T09:20:41.839Z,15.29
2024-05-09T09:23:08.759Z,15.17
2024-05-09T09:25:35.357Z,15.34
2024-05-09T09:28:02.055Z,15.38
2024-05-09T09:30:36.331Z,15.10
2024-05-09T09:33:06.375Z,15.25
2024-05-09T09:35:34.095Z,15.33
2024-05-09T09:38:05.724Z,15.04
2024-05-09T09:40:40.927Z,15.15
2024-05-09T09:43:23.022Z,15.26
2024-05-09T09:45:50.998Z,15.57
2024-05-09T09:48:19.819Z,15.64
2024-05-09T09:50:47.447Z,15.46
2024-05-09T09:53:14.234Z,15.65
2024-05-09T09:55:41.775Z,15.50
2024-05-09T09:58:13.368Z,15.75
2024-05-09T10:00:41.503Z,15.79
2024-05-09T10:03:08.439Z,15.79
2024-05-09T10:05:35.595Z,15.92
2024-05-09T10:08:07.468Z,16.15
2024-05-09T10:10:35.965Z,16.15
2024-05-09T10:13:07.672Z,16.05
2024-05-09T10:15:51.519Z,15.94
2024-05-09T10:18:26.091Z,15.78
2024-05-09T10:20:55.984Z,15.34
2024-05-09T10:23:30.513Z,15.37
2024-05-09T10:26:03.484Z,15.37
2024-05-09T10:28:35.533Z,15.29
2024-05-09T10:31:08.649Z,15.45
2024-05-09T10:33:40.072Z,15.67
2024-05-09T10:36:27.225Z,15.58
2024-05-09T10:38:54.860Z,15.76
2024-05-09T10:41:22.967Z,15.90
2024-05-09T10:43:50.144Z,16.22
2024-05-09T10:46:18.800Z,16.29
2024-05-09T10:48:45.711Z,16.64
2024-05-09T10:51:13.454Z,16.71
2024-05-09T10:53:44.375Z,16.37
2024-05-09T10:56:13.026Z,16.00
2024-05-09T10:58:39.681Z,15.94
2024-05-09T11:01:07.382Z,16.28
2024-05-09T11:03:35.348Z,16.53
2024-05-09T11:06:02.475Z,17.66
2024-05-09T11:08:31.821Z,17.66
2024-05-09T11:10:59.785Z,17.20
2024-05-09T11:13:30.894Z,16.96
2024-05-09T11:15:59.312Z,17.25
2024-05-09T11:18:31.711Z,17.49
2024-05-09T11:21:01.313Z,17.57
2024-05-09T11:23:30.366Z,17.36
2024-05-09T11:25:58.328Z,17.03
2024-05-09T11:28:27.012Z,16.83
2024-05-09T11:31:08.373Z,17.17
2024-05-09T11:33:39.603Z,17.43
2024-05-09T11:36:07.722Z,18.19
2024-05-09T11:38:34.398Z,18.72
2024-05-09T11:41:02.322Z,18.99
2024-05-09T11:43:29.028Z,18.56
2024-05-09T11:45:57.591Z,18.61
2024-05-09T11:48:25.849Z,18.62
2024-05-09T11:50:56.309Z,18.62
2024-05-09T11:53:23.001Z,18.53
2024-05-09T11:55:49.977Z,18.98
2024-05-09T11:58:18.076Z,19.52
2024-05-09T12:00:45.835Z,20.59
2024-05-09T12:03:12.916Z,23.84
2024-05-09T12:05:39.692Z,27.62
2024-05-09T12:08:07.152Z,27.61
2024-05-09T12:10:35.886Z,24.83
2024-05-09T12:13:05.537Z,23.20
2024-05-09T12:15:35.964Z,23.99
2024-05-09T12:18:04.202Z,27.79
2024-05-09T12:20:36.951Z,28.39
2024-05-09T12:23:05.948Z,25.13
2024-05-09T12:25:32.555Z,22.78
2024-05-09T12:27:59.506Z,21.55
2024-05-09T12:30:35.267Z,20.73
2024-05-09T12:33:05.973Z,20.85
2024-05-09T12:35:32.949Z,24.14
2024-05-09T12:37:59.797Z,24.04
2024-05-09T12:40:34.591Z,22.15
2024-05-09T12:43:05.006Z,21.16
2024-05-09T12:45:31.982Z,22.18
2024-05-09T12:47:58.889Z,25.12
2024-05-09T12:50:32.249Z,24.76
2024-05-09T12:53:01.060Z,23.04
2024-05-09T12:55:28.658Z,21.53
2024-05-09T12:57:58.997Z,21.27
2024-05-09T13:00:31.676Z,22.01
2024-05-09T13:03:01.018Z,22.40
2024-05-09T13:05:28.322Z,22.72
2024-05-09T13:07:56.439Z,21.78
2024-05-09T13:10:29.267Z,21.40
2024-05-09T13:13:00.010Z,20.67
2024-05-09T13:15:27.128Z,20.16
2024-05-09T13:17:54.811Z,19.57
2024-05-09T13:20:29.428Z,19.36
2024-05-09T13:23:01.715Z,18.89
2024-05-09T13:25:28.379Z,18.40
2024-05-09T13:27:55.943Z,18.18
2024-05-09T13:30:29.716Z,18.43
2024-05-09T13:33:06.373Z,18.53
2024-05-09T13:35:35.090Z,18.63
2024-05-09T13:38:02.679Z,20.09
2024-05-09T13:40:33.901Z,22.25
2024-05-09T13:43:05.994Z,23.26
2024-05-09T13:45:33.630Z,22.88
2024-05-09T13:48:02.013Z,21.60
2024-05-09T13:50:34.473Z,20.72
2024-05-09T13:53:05.429Z,20.02
2024-05-09T13:55:33.019Z,19.71
2024-05-09T13:58:00.106Z,19.29
2024-05-09T14:00:38.015Z,19.10
2024-05-09T14:03:11.427Z,19.50
2024-05-09T14:05:38.367Z,20.13
2024-05-09T14:08:05.669Z,20.23
2024-05-09T14:10:32.749Z,20.31
2024-05-09T14:13:00.788Z,20.24
2024-05-09T14:15:27.762Z,20.31
2024-05-09T14:17:55.238Z,20.47
2024-05-09T14:20:30.168Z,20.63
2024-05-09T14:23:01.546Z,20.19
2024-05-09T14:25:29.590Z,19.73
2024-05-09T14:27:57.959Z,19.73
2024-05-09T14:30:34.257Z,19.43
2024-05-09T14:33:04.747Z,19.61
2024-05-09T14:35:31.639Z,19.86
2024-05-09T14:37:58.829Z,19.52
2024-05-09T14:40:36.926Z,19.00
2024-05-09T14:43:08.606Z,19.14
2024-05-09T14:45:35.637Z,19.03
2024-05-09T14:48:03.260Z,19.08
2024-05-09T14:50:36.013Z,19.04
2024-05-09T14:53:06.745Z,19.53
2024-05-09T14:55:36.691Z,20.79
2024-05-09T14:58:06.378Z,22.23
2024-05-09T15:00:36.339Z,22.82
2024-05-09T15:03:05.285Z,23.81
2024-05-09T15:05:32.009Z,23.05
2024-05-09T15:07:59.298Z,22.08
2024-05-09T15:10:33.878Z,21.82
2024-05-09T15:13:03.392Z,21.90
2024-05-09T15:15:30.305Z,21.70
2024-05-09T15:17:57.404Z,21.51
2024-05-09T15:20:31.450Z,21.64
2024-05-09T15:23:02.420Z,21.53
2024-05-09T15:25:29.398Z,20.96
2024-05-09T15:27:56.416Z,20.64
2024-05-09T15:30:30.226Z,20.42
2024-05-09T15:32:59.437Z,20.24
2024-05-09T15:35:26.091Z,20.57
2024-05-09T15:37:52.754Z,22.38
2024-05-09T15:40:26.845Z,23.08
2024-05-09T15:43:02.633Z,21.93
2024-05-09T15:45:29.569Z,21.57
2024-05-09T15:47:57.607Z,21.09
2024-05-09T15:50:35.247Z,20.90
2024-05-09T15:53:06.432Z,20.72
2024-05-09T15:55:34.324Z,20.53
2024-05-09T15:58:02.444Z,20.08
2024-05-09T16:00:37.214Z,20.08
2024-05-09T16:03:07.711Z,20.00
2024-05-09T16:05:34.726Z,19.88
2024-05-09T16:08:01.547Z,20.09
2024-05-09T16:10:32.683Z,20.30
2024-05-09T16:13:01.594Z,20.52
2024-05-09T16:15:28.572Z,21.63
2024-05-09T16:17:55.386Z,22.92
2024-05-09T16:20:33.894Z,22.11
2024-05-09T16:23:06.038Z,22.14
2024-05-09T16:25:32.713Z,22.20
2024-05-09T16:27:59.847Z,22.14
2024-05-09T16:30:33.821Z,21.91
2024-05-09T16:33:02.907Z,21.63
2024-05-09T16:35:29.893Z,21.22
2024-05-09T16:37:57.043Z,21.16
2024-05-09T16:40:30.462Z,20.91
2024-05-09T16:43:04.452Z,20.75
2024-05-09T16:45:31.461Z,21.12
2024-05-09T16:47:59.772Z,23.12
2024-05-09T16:50:32.303Z,23.60
2024-05-09T16:53:01.147Z,23.91
2024-05-09T16:55:27.973Z,24.71
2024-05-09T16:57:55.678Z,25.03
2024-05-09T17:00:31.737Z,24.75
2024-05-09T17:03:07.438Z,24.81
2024-05-09T17:05:35.266Z,24.22
2024-05-09T17:08:02.423Z,23.53
2024-05-09T17:10:33.089Z,22.93
2024-05-09T17:13:02.568Z,22.42
2024-05-09T17:15:29.642Z,21.73
2024-05-09T17:17:56.549Z,21.47
2024-05-09T17:20:31.240Z,21.29
2024-05-09T17:23:02.485Z,21.22
2024-05-09T17:25:29.400Z,21.07
2024-05-09T17:27:57.007Z,20.77
2024-05-09T17:30:32.111Z,20.70
2024-05-09T17:33:03.786Z,20.69
2024-05-09T17:35:31.847Z,20.69
2024-05-09T17:37:59.630Z,20.68
2024-05-09T17:40:32.801Z,20.66
2024-05-09T17:43:02.688Z,20.53
2024-05-09T17:45:29.623Z,20.43
2024-05-09T17:47:56.543Z,20.05
2024-05-09T17:50:30.352Z,19.87
2024-05-09T17:53:01.845Z,20.08
2024-05-09T17:55:28.826Z,19.92
2024-05-09T17:57:55.790Z,19.90
2024-05-09T18:00:33.060Z,19.78
2024-05-09T18:03:05.706Z,19.54
2024-05-09T18:05:32.609Z,19.56
2024-05-09T18:07:59.992Z,19.70
2024-05-09T18:10:33.706Z,19.67
2024-05-09T18:13:05.307Z,19.54
2024-05-09T18:15:32.291Z,19.18
2024-05-09T18:17:59.388Z,18.98
2024-05-09T18:20:36.642Z,18.81
2024-05-09T18:23:08.895Z,18.53
2024-05-09T18:25:35.482Z,18.25
2024-05-09T18:28:03.118Z,17.97
2024-05-09T18:30:34.800Z,17.76
2024-05-09T18:33:07.988Z,17.50
2024-05-09T18:35:36.108Z,17.26
2024-05-09T18:38:03.611Z,17.07
2024-05-09T18:40:34.596Z,16.90
2024-05-09T18:43:05.224Z,16.64
2024-05-09T18:45:33.048Z,16.40
2024-05-09T18:47:59.802Z,16.20
2024-05-09T18:50:34.861Z,16.02
2024-05-09T18:53:12.630Z,15.86
2024-05-09T18:55:43.005Z,15.68
2024-05-09T18:58:09.821Z,15.48
2024-05-09T19:00:39.254Z,15.34
2024-05-09T19:03:11.226Z,15.20
2024-05-09T19:05:40.672Z,15.02
2024-05-09T19:08:08.327Z,14.89
2024-05-09T19:10:37.367Z,14.68
2024-05-09T19:13:08.845Z,14.60
2024-05-09T19:15:39.381Z,14.44
2024-05-09T19:18:06.940Z,14.35
2024-05-09T19:20:35.593Z,14.19
2024-05-09T19:23:03.919Z,14.11
2024-05-09T19:25:30.770Z,13.91
2024-05-09T19:27:57.881Z,13.72
2024-05-09T19:30:33.755Z,13.59
2024-05-09T19:33:06.232Z,13.48
2024-05-09T19:35:33.094Z,13.43
2024-05-09T19:37:59.958Z,13.36
2024-05-09T19:40:31.436Z,13.26
2024-05-09T19:43:01.518Z,13.18
2024-05-09T19:45:28.848Z,13.04
2024-05-09T19:47:55.908Z,12.95
2024-05-09T19:50:31.015Z,12.84
2024-05-09T19:53:04.521Z,12.76
2024-05-09T19:55:31.130Z,12.66
2024-05-09T19:57:58.929Z,12.60
2024-05-09T20:00:32.764Z,12.53
2024-05-09T20:03:02.679Z,12.40
2024-05-09T20:05:31.231Z,12.31
2024-05-09T20:07:58.313Z,12.21
2024-05-09T20:10:31.112Z,12.10
2024-05-09T20:12:59.664Z,12.01
2024-05-09T20:15:26.467Z,11.97
2024-05-09T20:17:53.816Z,11.92
2024-05-09T20:20:31.905Z,11.83
2024-05-09T20:23:03.392Z,11.80
2024-05-09T20:25:30.108Z,11.70
2024-05-09T20:27:56.830Z,11.61
2024-05-09T20:30:30.655Z,11.54
2024-05-09T20:32:59.844Z,11.47
2024-05-09T20:35:26.864Z,11.39
2024-05-09T20:37:53.601Z,11.25
2024-05-09T20:40:28.341Z,11.19
2024-05-09T20:42:59.271Z,11.17
2024-05-09T20:45:26.071Z,11.04
2024-05-09T20:47:52.774Z,11.02
2024-05-09T20:50:28.277Z,10.98
2024-05-09T20:53:02.702Z,10.90
2024-05-09T20:55:29.850Z,10.75
2024-05-09T20:57:56.993Z,10.69
2024-05-09T21:00:30.317Z,10.65
2024-05-09T21:03:06.317Z,10.58
2024-05-09T21:05:33.684Z,10.54
2024-05-09T21:08:01.330Z,10.51
2024-05-09T21:10:32.651Z,10.47
2024-05-09T21:13:00.650Z,10.38
2024-05-09T21:15:27.333Z,10.34
2024-05-09T21:17:53.996Z,10.24
2024-05-09T21:20:24.480Z,10.13
2024-05-09T21:22:57.765Z,10.06
2024-05-09T21:25:24.509Z,10.06
2024-05-09T21:27:51.485Z,10.04
2024-05-09T21:30:27.287Z,10.02
2024-05-09T21:32:59.638Z,9.91
2024-05-09T21:35:26.352Z,9.83
2024-05-09T21:37:52.917Z,9.85
2024-05-09T21:40:27.282Z,9.78
2024-05-09T21:43:00.768Z,9.73
2024-05-09T21:45:27.600Z,9.66
2024-05-09T21:47:54.292Z,9.64
2024-05-09T21:50:27.627Z,9.63
2024-05-09T21:52:58.900Z,9.54
2024-05-09T21:55:25.499Z,9.50
2024-05-09T21:57:52.139Z,9.52
2024-05-09T22:00:28.642Z,9.42
2024-05-09T22:03:02.187Z,9.35
2024-05-09T22:05:29.064Z,9.31
2024-05-09T22:07:55.934Z,9.25
2024-05-09T22:10:26.967Z,9.19
2024-05-09T22:12:59.811Z,9.11
2024-05-09T22:15:26.425Z,9.06
2024-05-09T22:17:53.755Z,9.02
2024-05-09T22:20:28.744Z,8.97
2024-05-09T22:23:02.259Z,8.97
2024-05-09T22:25:30.781Z,8.96
2024-05-09T22:27:58.104Z,8.85
2024-05-09T22:30:33.764Z,8.79
2024-05-09T22:33:05.161Z,8.70
2024-05-09T22:35:32.042Z,8.63
2024-05-09T22:37:58.779Z,8.55
2024-05-09T22:40:37.780Z,8.53
2024-05-09T22:43:12.444Z,8.53
2024-05-09T22:45:39.285Z,8.49
2024-05-09T22:48:06.701Z,8.50
2024-05-09T22:50:33.902Z,8.43
2024-05-09T22:53:00.910Z,8.42
2024-05-09T22:55:27.620Z,8.46
2024-05-09T22:57:54.256Z,8.45
2024-05-09T23:00:29.258Z,8.40
2024-05-09T23:03:00.044Z,8.33
2024-05-09T23:05:26.987Z,8.18
2024-05-09T23:07:53.651Z,8.16
2024-05-09T23:10:27.744Z,8.13
2024-05-09T23:12:59.287Z,8.10
2024-05-09T23:15:25.945Z,8.11
2024-05-09T23:17:52.709Z,8.05
2024-05-09T23:20:29.843Z,7.96
2024-05-09T23:23:03.796Z,7.94
2024-05-09T23:25:30.429Z,7.91
2024-05-09T23:27:57.176Z,7.92
2024-05-09T23:30:33.323Z,7.87
2024-05-09T23:33:05.339Z,7.80
2024-05-09T23:35:32.156Z,7.76
2024-05-09T23:37:58.710Z,7.73
2024-05-09T23:40:36.795Z,7.69
2024-05-09T23:43:07.201Z,7.64
2024-05-09T23:45:34.118Z,7.61
2024-05-09T23:48:01.569Z,7.64
2024-05-09T23:50:35.521Z,7.58
2024-05-09T23:53:05.440Z,7.49
2024-05-09T23:55:32.757Z,7.42
2024-05-09T23:57:59.644Z,7.39
